Estación Meteorológica Peña el Pijo (Robertgarden) [ 09/28/20 20:25:40 CEST ]

Fecha Hora Presion(HPa) Temp (°C) Humedad % Rocio (°C) Viento ( m/s) Direccion Lluvia 1Hora(mm) Lluvia 24H(mm) LLuvia Total(mm)
2020-Sep-27 01:09:06 1006.800 13.4 52 3.7 - N     89.61
2020-Sep-27 02:09:46 1006.100 11.6 58 3.6 - N     89.61
2020-Sep-27 03:09:37 1005.400 10.2 65 3.9 - N     89.61
2020-Sep-27 04:09:30 1004.800 9.8 67 3.9 - N     89.61
2020-Sep-27 05:09:33 1004.600 11.9 59 4.1 - N     89.61
2020-Sep-27 06:10:21 1004.900 11.4 61 4.1 - N     89.61
2020-Sep-27 07:08:49 1005.400 12.1 63 5.2 - N     89.61
2020-Sep-27 08:09:19 1005.700 11.6 65 5.2 - N     89.61
2020-Sep-27 09:09:18 1005.000 14.4 62 7.2 - N     89.61
2020-Sep-27 10:09:31 1005.900 19.9 47 8.2 - N     89.61
2020-Sep-27 11:09:25 1006.500 21.1 43 8.0 - N     89.61
2020-Sep-27 12:09:26 1006.900 21.6 42 8.1 - N     89.61
2020-Sep-27 13:09:45 1006.700 22.4 39 7.7 - N     89.61
2020-Sep-27 14:09:45 1006.100 22.7 38 7.6 - N     89.61
2020-Sep-27 15:09:31 1005.600 22.6 34 5.8 - N     89.61
2020-Sep-27 16:09:35 1005.400 22.9 31 4.8 - N     89.61
2020-Sep-27 17:09:42 1005.400 22.2 30 3.9 - N     89.61
2020-Sep-27 18:09:55 1005.500 20.8 35 4.7 - N     89.61
2020-Sep-27 19:09:45 1005.800 19.4 39 5.0 - N     89.61
2020-Sep-27 20:09:32 1006.400 17.8 41 4.3 - N     89.61
2020-Sep-27 21:09:35 1006.900 15.2 50 4.9 - N     89.61
2020-Sep-27 22:09:29 1007.900 12.8 58 4.7 - N     89.61
2020-Sep-27 23:09:56 1008.200 11.5 63 4.7 - N     89.61

Temperatura Máxima:22°    Temperatura Mínima:
Presión Máxima:1008.200 Hpa    Presión Mínima:1004.600 Hpa


Volver